sensor_id;sensor_type;location;lat;lon;timestamp;pressure;altitude;pressure_sealevel;temperature;humidity
52957;BME280;38819;42.692;23.342;2023-11-19T00:00:47;95272.88;;;5.20;62.61
52957;BME280;38819;42.692;23.342;2023-11-19T00:03:13;95277.78;;;5.29;62.54
52957;BME280;38819;42.692;23.342;2023-11-19T00:05:38;95267.06;;;5.29;62.28
52957;BME280;38819;42.692;23.342;2023-11-19T00:08:04;95263.84;;;5.27;62.28
52957;BME280;38819;42.692;23.342;2023-11-19T00:10:30;95272.09;;;5.20;62.70
52957;BME280;38819;42.692;23.342;2023-11-19T00:12:56;95257.59;;;5.16;62.57
52957;BME280;38819;42.692;23.342;2023-11-19T00:15:23;95254.84;;;5.06;63.06
52957;BME280;38819;42.692;23.342;2023-11-19T00:17:49;95264.69;;;4.95;63.15
52957;BME280;38819;42.692;23.342;2023-11-19T00:20:15;95262.63;;;5.07;62.79
52957;BME280;38819;42.692;23.342;2023-11-19T00:22:42;95285.66;;;5.08;62.77
52957;BME280;38819;42.692;23.342;2023-11-19T00:25:08;95265.88;;;5.14;62.72
52957;BME280;38819;42.692;23.342;2023-11-19T00:27:33;95269.66;;;5.18;62.38
52957;BME280;38819;42.692;23.342;2023-11-19T00:29:58;95272.94;;;5.26;62.19
52957;BME280;38819;42.692;23.342;2023-11-19T00:32:24;95286.59;;;5.29;62.43
52957;BME280;38819;42.692;23.342;2023-11-19T00:34:49;95272.38;;;5.24;62.33
52957;BME280;38819;42.692;23.342;2023-11-19T00:37:15;95279.59;;;5.18;62.40
52957;BME280;38819;42.692;23.342;2023-11-19T00:39:40;95273.50;;;5.33;61.91
52957;BME280;38819;42.692;23.342;2023-11-19T00:42:05;95278.69;;;5.45;61.71
52957;BME280;38819;42.692;23.342;2023-11-19T00:44:31;95262.06;;;5.48;61.71
52957;BME280;38819;42.692;23.342;2023-11-19T00:46:56;95279.25;;;5.52;61.43
52957;BME280;38819;42.692;23.342;2023-11-19T00:49:21;95279.13;;;5.31;61.95
52957;BME280;38819;42.692;23.342;2023-11-19T00:51:47;95290.53;;;5.16;62.55
52957;BME280;38819;42.692;23.342;2023-11-19T00:54:12;95288.91;;;5.15;62.79
52957;BME280;38819;42.692;23.342;2023-11-19T00:56:37;95285.41;;;5.10;62.92
52957;BME280;38819;42.692;23.342;2023-11-19T00:59:03;95284.78;;;5.03;63.46
52957;BME280;38819;42.692;23.342;2023-11-19T01:01:29;95272.56;;;5.12;63.29
52957;BME280;38819;42.692;23.342;2023-11-19T01:03:56;95273.16;;;5.19;63.10
52957;BME280;38819;42.692;23.342;2023-11-19T01:06:30;95281.41;;;5.12;63.09
52957;BME280;38819;42.692;23.342;2023-11-19T01:08:56;95315.69;;;5.15;63.21
52957;BME280;38819;42.692;23.342;2023-11-19T01:11:24;95295.59;;;5.13;63.21
52957;BME280;38819;42.692;23.342;2023-11-19T01:13:50;95295.03;;;5.11;63.15
52957;BME280;38819;42.692;23.342;2023-11-19T01:16:15;95296.13;;;5.10;63.32
52957;BME280;38819;42.692;23.342;2023-11-19T01:18:41;95310.25;;;5.05;63.16
52957;BME280;38819;42.692;23.342;2023-11-19T01:21:06;95297.97;;;5.09;63.18
52957;BME280;38819;42.692;23.342;2023-11-19T01:23:31;95281.81;;;4.99;63.29
52957;BME280;38819;42.692;23.342;2023-11-19T01:25:57;95288.59;;;5.07;63.02
52957;BME280;38819;42.692;23.342;2023-11-19T01:28:23;95284.75;;;4.97;63.17
52957;BME280;38819;42.692;23.342;2023-11-19T01:30:50;95290.09;;;4.97;63.27
52957;BME280;38819;42.692;23.342;2023-11-19T01:33:15;95294.16;;;5.00;63.19
52957;BME280;38819;42.692;23.342;2023-11-19T01:35:40;95306.56;;;5.11;62.95
52957;BME280;38819;42.692;23.342;2023-11-19T01:38:07;95300.91;;;5.08;62.86
52957;BME280;38819;42.692;23.342;2023-11-19T01:40:33;95310.59;;;5.14;62.60
52957;BME280;38819;42.692;23.342;2023-11-19T01:42:59;95304.72;;;5.17;62.41
52957;BME280;38819;42.692;23.342;2023-11-19T01:45:27;95314.66;;;5.16;62.24
52957;BME280;38819;42.692;23.342;2023-11-19T01:47:54;95287.97;;;5.32;62.01
52957;BME280;38819;42.692;23.342;2023-11-19T01:50:19;95309.31;;;5.22;61.81
52957;BME280;38819;42.692;23.342;2023-11-19T01:52:45;95302.56;;;5.14;61.90
52957;BME280;38819;42.692;23.342;2023-11-19T01:55:11;95311.34;;;5.09;61.47
52957;BME280;38819;42.692;23.342;2023-11-19T01:57:37;95309.47;;;5.05;61.36
52957;BME280;38819;42.692;23.342;2023-11-19T02:00:03;95308.47;;;4.83;61.82
52957;BME280;38819;42.692;23.342;2023-11-19T02:02:28;95299.44;;;4.90;62.00
52957;BME280;38819;42.692;23.342;2023-11-19T02:04:54;95307.66;;;4.83;62.01
52957;BME280;38819;42.692;23.342;2023-11-19T02:07:21;95296.47;;;4.86;61.87
52957;BME280;38819;42.692;23.342;2023-11-19T02:09:46;95288.50;;;4.96;61.54
52957;BME280;38819;42.692;23.342;2023-11-19T02:12:12;95281.56;;;5.00;61.48
52957;BME280;38819;42.692;23.342;2023-11-19T02:14:37;95274.31;;;4.96;61.79
52957;BME280;38819;42.692;23.342;2023-11-19T02:17:03;95282.28;;;4.91;61.63
52957;BME280;38819;42.692;23.342;2023-11-19T02:19:28;95275.88;;;4.92;61.34
52957;BME280;38819;42.692;23.342;2023-11-19T02:21:54;95279.38;;;4.92;61.46
52957;BME280;38819;42.692;23.342;2023-11-19T02:24:21;95279.38;;;4.92;61.58
52957;BME280;38819;42.692;23.342;2023-11-19T02:29:15;95289.47;;;4.85;61.39
52957;BME280;38819;42.692;23.342;2023-11-19T02:31:40;95284.00;;;4.70;62.18
52957;BME280;38819;42.692;23.342;2023-11-19T02:34:06;95285.44;;;4.82;61.83
52957;BME280;38819;42.692;23.342;2023-11-19T02:36:31;95283.66;;;4.93;61.26
52957;BME280;38819;42.692;23.342;2023-11-19T02:38:57;95275.81;;;4.81;61.70
52957;BME280;38819;42.692;23.342;2023-11-19T02:41:22;95280.94;;;4.88;61.55
52957;BME280;38819;42.692;23.342;2023-11-19T02:43:48;95280.19;;;4.93;61.35
52957;BME280;38819;42.692;23.342;2023-11-19T02:46:13;95276.59;;;4.82;61.68
52957;BME280;38819;42.692;23.342;2023-11-19T02:48:39;95278.03;;;4.90;61.54
52957;BME280;38819;42.692;23.342;2023-11-19T02:51:04;95290.03;;;4.87;61.68
52957;BME280;38819;42.692;23.342;2023-11-19T02:53:30;95284.41;;;4.89;61.73
52957;BME280;38819;42.692;23.342;2023-11-19T02:55:55;95283.66;;;4.93;61.81
52957;BME280;38819;42.692;23.342;2023-11-19T02:58:27;95277.16;;;4.84;61.78
52957;BME280;38819;42.692;23.342;2023-11-19T03:00:53;95281.44;;;4.85;62.00
52957;BME280;38819;42.692;23.342;2023-11-19T03:03:34;95275.03;;;4.86;61.96
52957;BME280;38819;42.692;23.342;2023-11-19T03:06:03;95294.56;;;4.87;61.64
52957;BME280;38819;42.692;23.342;2023-11-19T03:08:30;95273.69;;;4.83;61.78
52957;BME280;38819;42.692;23.342;2023-11-19T03:10:55;95283.78;;;4.76;61.80
52957;BME280;38819;42.692;23.342;2023-11-19T03:13:21;95291.81;;;4.76;61.98
52957;BME280;38819;42.692;23.342;2023-11-19T03:15:47;95302.28;;;4.78;61.94
52957;BME280;38819;42.692;23.342;2023-11-19T03:18:12;95293.41;;;4.77;61.84
52957;BME280;38819;42.692;23.342;2023-11-19T03:20:37;95299.19;;;4.64;62.36
52957;BME280;38819;42.692;23.342;2023-11-19T03:23:02;95301.09;;;4.69;62.29
52957;BME280;38819;42.692;23.342;2023-11-19T03:25:28;95282.53;;;4.57;62.56
52957;BME280;38819;42.692;23.342;2023-11-19T03:28:01;95271.06;;;4.61;62.58
52957;BME280;38819;42.692;23.342;2023-11-19T03:30:29;95282.38;;;4.69;62.34
52957;BME280;38819;42.692;23.342;2023-11-19T03:32:58;95278.47;;;4.54;62.49
52957;BME280;38819;42.692;23.342;2023-11-19T03:35:24;95286.63;;;4.64;62.14
52957;BME280;38819;42.692;23.342;2023-11-19T03:37:49;95293.03;;;4.63;62.30
52957;BME280;38819;42.692;23.342;2023-11-19T03:40:15;95290.31;;;4.58;62.68
52957;BME280;38819;42.692;23.342;2023-11-19T03:42:40;95297.00;;;4.61;62.64
52957;BME280;38819;42.692;23.342;2023-11-19T03:45:06;95301.00;;;4.58;62.63
52957;BME280;38819;42.692;23.342;2023-11-19T03:47:33;95292.19;;;4.58;62.46
52957;BME280;38819;42.692;23.342;2023-11-19T03:49:59;95322.19;;;4.65;62.27
52957;BME280;38819;42.692;23.342;2023-11-19T03:52:24;95322.66;;;4.57;62.59
52957;BME280;38819;42.692;23.342;2023-11-19T03:54:49;95324.91;;;4.43;62.92
52957;BME280;38819;42.692;23.342;2023-11-19T03:57:14;95322.31;;;4.48;62.80
52957;BME280;38819;42.692;23.342;2023-11-19T03:59:40;95320.22;;;4.55;62.55
52957;BME280;38819;42.692;23.342;2023-11-19T04:02:06;95327.09;;;4.46;62.87
52957;BME280;38819;42.692;23.342;2023-11-19T04:04:31;95322.44;;;4.63;62.60
52957;BME280;38819;42.692;23.342;2023-11-19T04:06:57;95333.44;;;4.67;62.28
52957;BME280;38819;42.692;23.342;2023-11-19T04:09:23;95333.44;;;4.67;61.97
52957;BME280;38819;42.692;23.342;2023-11-19T04:11:48;95337.41;;;4.59;62.36
52957;BME280;38819;42.692;23.342;2023-11-19T04:14:13;95357.22;;;4.63;62.37
52957;BME280;38819;42.692;23.342;2023-11-19T04:16:39;95353.59;;;4.75;62.07
52957;BME280;38819;42.692;23.342;2023-11-19T04:19:04;95361.88;;;4.73;62.18
52957;BME280;38819;42.692;23.342;2023-11-19T04:21:30;95360.31;;;4.77;62.12
52957;BME280;38819;42.692;23.342;2023-11-19T04:23:55;95366.44;;;4.73;62.10
52957;BME280;38819;42.692;23.342;2023-11-19T04:26:21;95353.91;;;4.78;62.08
52957;BME280;38819;42.692;23.342;2023-11-19T04:28:46;95341.94;;;4.86;61.94
52957;BME280;38819;42.692;23.342;2023-11-19T04:31:11;95341.56;;;4.77;62.01
52957;BME280;38819;42.692;23.342;2023-11-19T04:33:36;95363.81;;;4.78;61.96
52957;BME280;38819;42.692;23.342;2023-11-19T04:36:02;95357.34;;;4.74;61.98
52957;BME280;38819;42.692;23.342;2023-11-19T04:38:27;95383.84;;;4.75;61.66
52957;BME280;38819;42.692;23.342;2023-11-19T04:40:53;95364.84;;;4.77;61.90
52957;BME280;38819;42.692;23.342;2023-11-19T04:43:18;95380.88;;;4.72;61.82
52957;BME280;38819;42.692;23.342;2023-11-19T04:45:45;95362.78;;;4.57;61.85
52957;BME280;38819;42.692;23.342;2023-11-19T04:48:10;95375.22;;;4.68;62.01
52957;BME280;38819;42.692;23.342;2023-11-19T04:50:37;95386.41;;;4.65;61.77
52957;BME280;38819;42.692;23.342;2023-11-19T04:53:02;95378.75;;;4.74;61.79
52957;BME280;38819;42.692;23.342;2023-11-19T04:55:28;95392.91;;;4.74;61.58
52957;BME280;38819;42.692;23.342;2023-11-19T04:57:54;95385.66;;;4.70;61.46
52957;BME280;38819;42.692;23.342;2023-11-19T05:00:19;95386.09;;;4.61;61.57
52957;BME280;38819;42.692;23.342;2023-11-19T05:02:46;95384.03;;;4.69;61.50
52957;BME280;38819;42.692;23.342;2023-11-19T05:05:11;95385.91;;;4.68;61.79
52957;BME280;38819;42.692;23.342;2023-11-19T05:07:37;95395.09;;;4.77;61.78
52957;BME280;38819;42.692;23.342;2023-11-19T05:10:03;95399.44;;;4.83;61.38
52957;BME280;38819;42.692;23.342;2023-11-19T05:12:29;95410.25;;;4.94;60.80
52957;BME280;38819;42.692;23.342;2023-11-19T05:14:54;95401.88;;;4.85;60.94
52957;BME280;38819;42.692;23.342;2023-11-19T05:17:20;95392.13;;;4.74;61.41
52957;BME280;38819;42.692;23.342;2023-11-19T05:19:45;95393.84;;;4.85;61.06
52957;BME280;38819;42.692;23.342;2023-11-19T05:22:10;95401.38;;;4.88;61.00
52957;BME280;38819;42.692;23.342;2023-11-19T05:24:36;95386.06;;;4.83;60.97
52957;BME280;38819;42.692;23.342;2023-11-19T05:27:01;95395.97;;;4.83;60.85
52957;BME280;38819;42.692;23.342;2023-11-19T05:29:27;95390.69;;;4.88;60.89
52957;BME280;38819;42.692;23.342;2023-11-19T05:31:52;95399.75;;;4.87;60.83
52957;BME280;38819;42.692;23.342;2023-11-19T05:34:17;95388.56;;;4.90;60.71
52957;BME280;38819;42.692;23.342;2023-11-19T05:36:43;95396.03;;;4.88;60.96
52957;BME280;38819;42.692;23.342;2023-11-19T05:39:08;95404.41;;;4.97;60.66
52957;BME280;38819;42.692;23.342;2023-11-19T05:41:33;95394.25;;;4.99;60.41
52957;BME280;38819;42.692;23.342;2023-11-19T05:43:59;95405.78;;;4.99;60.26
52957;BME280;38819;42.692;23.342;2023-11-19T05:46:24;95413.03;;;5.04;60.17
52957;BME280;38819;42.692;23.342;2023-11-19T05:48:52;95412.28;;;5.09;59.81
52957;BME280;38819;42.692;23.342;2023-11-19T05:51:17;95405.78;;;5.27;59.74
52957;BME280;38819;42.692;23.342;2023-11-19T05:53:42;95405.06;;;5.36;59.34
52957;BME280;38819;42.692;23.342;2023-11-19T05:56:08;95408.19;;;5.28;58.99
52957;BME280;38819;42.692;23.342;2023-11-19T05:58:34;95419.31;;;5.15;59.42
52957;BME280;38819;42.692;23.342;2023-11-19T06:01:00;95431.91;;;4.92;60.00
52957;BME280;38819;42.692;23.342;2023-11-19T06:03:26;95419.88;;;4.90;60.26
52957;BME280;38819;42.692;23.342;2023-11-19T06:05:51;95417.25;;;4.95;60.25
52957;BME280;38819;42.692;23.342;2023-11-19T06:08:17;95426.06;;;4.95;60.30
52957;BME280;38819;42.692;23.342;2023-11-19T06:10:42;95433.19;;;4.85;60.61
52957;BME280;38819;42.692;23.342;2023-11-19T06:13:08;95435.44;;;4.93;60.47
52957;BME280;38819;42.692;23.342;2023-11-19T06:15:35;95453.78;;;4.84;60.73
52957;BME280;38819;42.692;23.342;2023-11-19T06:18:01;95429.94;;;4.82;60.94
52957;BME280;38819;42.692;23.342;2023-11-19T06:20:28;95431.25;;;4.80;61.07
52957;BME280;38819;42.692;23.342;2023-11-19T06:22:54;95448.44;;;4.84;60.94
52957;BME280;38819;42.692;23.342;2023-11-19T06:25:19;95426.66;;;4.75;61.14
52957;BME280;38819;42.692;23.342;2023-11-19T06:27:44;95444.25;;;4.93;60.67
52957;BME280;38819;42.692;23.342;2023-11-19T06:30:10;95440.59;;;4.99;60.36
52957;BME280;38819;42.692;23.342;2023-11-19T06:32:36;95442.38;;;4.94;60.57
52957;BME280;38819;42.692;23.342;2023-11-19T06:35:01;95429.75;;;4.89;60.65
52957;BME280;38819;42.692;23.342;2023-11-19T06:37:29;95434.28;;;4.89;60.45
52957;BME280;38819;42.692;23.342;2023-11-19T06:39:54;95429.28;;;4.70;61.08
52957;BME280;38819;42.692;23.342;2023-11-19T06:42:20;95440.53;;;4.72;61.20
52957;BME280;38819;42.692;23.342;2023-11-19T06:44:45;95430.38;;;4.74;61.06
52957;BME280;38819;42.692;23.342;2023-11-19T06:47:10;95430.13;;;4.76;60.90
52957;BME280;38819;42.692;23.342;2023-11-19T06:49:35;95487.59;;;4.68;60.63
52957;BME280;38819;42.692;23.342;2023-11-19T06:52:01;95427.84;;;4.62;61.02
52957;BME280;38819;42.692;23.342;2023-11-19T06:54:26;95434.44;;;4.55;61.41
52957;BME280;38819;42.692;23.342;2023-11-19T06:56:51;95442.03;;;4.63;61.41
52957;BME280;38819;42.692;23.342;2023-11-19T06:59:17;95427.47;;;4.54;60.83
52957;BME280;38819;42.692;23.342;2023-11-19T07:01:42;95441.66;;;4.54;60.74
52957;BME280;38819;42.692;23.342;2023-11-19T07:04:10;95451.59;;;4.37;61.02
52957;BME280;38819;42.692;23.342;2023-11-19T07:06:35;95464.66;;;4.33;61.05
52957;BME280;38819;42.692;23.342;2023-11-19T07:09:02;95444.88;;;4.34;61.15
52957;BME280;38819;42.692;23.342;2023-11-19T07:11:40;95451.03;;;4.35;61.04
52957;BME280;38819;42.692;23.342;2023-11-19T07:14:06;95443.31;;;4.38;60.96
52957;BME280;38819;42.692;23.342;2023-11-19T07:16:35;95445.03;;;4.44;60.77
52957;BME280;38819;42.692;23.342;2023-11-19T07:19:02;95440.41;;;4.40;61.04
52957;BME280;38819;42.692;23.342;2023-11-19T07:21:28;95450.31;;;4.39;60.98
52957;BME280;38819;42.692;23.342;2023-11-19T07:23:53;95448.75;;;4.43;60.96
52957;BME280;38819;42.692;23.342;2023-11-19T07:26:19;95446.50;;;4.57;60.57
52957;BME280;38819;42.692;23.342;2023-11-19T07:28:44;95455.09;;;4.59;60.39
52957;BME280;38819;42.692;23.342;2023-11-19T07:31:10;95456.66;;;4.55;60.19
52957;BME280;38819;42.692;23.342;2023-11-19T07:33:35;95479.63;;;4.51;60.51
52957;BME280;38819;42.692;23.342;2023-11-19T07:36:01;95506.97;;;4.36;60.53
52957;BME280;38819;42.692;23.342;2023-11-19T07:38:26;95490.66;;;4.38;60.64
52957;BME280;38819;42.692;23.342;2023-11-19T07:40:52;95480.34;;;4.47;60.51
52957;BME280;38819;42.692;23.342;2023-11-19T07:43:17;95494.03;;;4.50;60.23
52957;BME280;38819;42.692;23.342;2023-11-19T07:45:42;95494.22;;;4.43;60.42
52957;BME280;38819;42.692;23.342;2023-11-19T07:48:11;95488.19;;;4.53;60.25
52957;BME280;38819;42.692;23.342;2023-11-19T07:50:39;95482.13;;;4.41;60.09
52957;BME280;38819;42.692;23.342;2023-11-19T07:53:07;95493.66;;;4.41;60.58
52957;BME280;38819;42.692;23.342;2023-11-19T07:55:33;95483.34;;;4.50;59.85
52957;BME280;38819;42.692;23.342;2023-11-19T07:57:59;95492.66;;;4.48;60.05
52957;BME280;38819;42.692;23.342;2023-11-19T08:00:24;95493.22;;;4.50;60.04
52957;BME280;38819;42.692;23.342;2023-11-19T08:02:49;95486.25;;;4.49;60.13
52957;BME280;38819;42.692;23.342;2023-11-19T08:05:15;95510.50;;;4.42;59.88
52957;BME280;38819;42.692;23.342;2023-11-19T08:07:40;95495.00;;;4.44;60.17
52957;BME280;38819;42.692;23.342;2023-11-19T08:10:06;95506.66;;;4.55;59.84
52957;BME280;38819;42.692;23.342;2023-11-19T08:12:34;95509.97;;;4.62;59.79
52957;BME280;38819;42.692;23.342;2023-11-19T08:15:00;95495.56;;;4.63;59.54
52957;BME280;38819;42.692;23.342;2023-11-19T08:17:25;95511.19;;;4.54;59.60
52957;BME280;38819;42.692;23.342;2023-11-19T08:19:50;95502.63;;;4.52;59.99
52957;BME280;38819;42.692;23.342;2023-11-19T08:22:16;95502.63;;;4.52;59.84
52957;BME280;38819;42.692;23.342;2023-11-19T08:24:42;95502.69;;;4.57;59.63
52957;BME280;38819;42.692;23.342;2023-11-19T08:27:07;95514.53;;;4.61;59.57
52957;BME280;38819;42.692;23.342;2023-11-19T08:29:32;95519.72;;;4.51;59.51
52957;BME280;38819;42.692;23.342;2023-11-19T08:31:59;95518.03;;;4.45;59.97
52957;BME280;38819;42.692;23.342;2023-11-19T08:34:25;95508.03;;;4.57;59.89
52957;BME280;38819;42.692;23.342;2023-11-19T08:36:50;95517.75;;;4.63;59.49
52957;BME280;38819;42.692;23.342;2023-11-19T08:39:18;95529.66;;;4.73;59.45
52957;BME280;38819;42.692;23.342;2023-11-19T08:41:43;95520.66;;;4.62;59.06
52957;BME280;38819;42.692;23.342;2023-11-19T08:44:09;95542.63;;;4.64;59.14
52957;BME280;38819;42.692;23.342;2023-11-19T08:46:34;95529.13;;;4.54;59.51
52957;BME280;38819;42.692;23.342;2023-11-19T08:48:59;95524.50;;;4.66;59.08
52957;BME280;38819;42.692;23.342;2023-11-19T08:51:25;95519.94;;;4.67;58.77
52957;BME280;38819;42.692;23.342;2023-11-19T08:53:50;95517.69;;;4.58;59.06
52957;BME280;38819;42.692;23.342;2023-11-19T08:56:16;95545.47;;;4.57;59.20
52957;BME280;38819;42.692;23.342;2023-11-19T08:58:41;95544.75;;;4.62;58.88
52957;BME280;38819;42.692;23.342;2023-11-19T09:01:06;95532.59;;;4.54;58.83
52957;BME280;38819;42.692;23.342;2023-11-19T09:03:32;95530.09;;;4.64;58.69
52957;BME280;38819;42.692;23.342;2023-11-19T09:05:57;95512.47;;;4.69;58.50
52957;BME280;38819;42.692;23.342;2023-11-19T09:08:22;95504.94;;;4.66;58.78
52957;BME280;38819;42.692;23.342;2023-11-19T09:10:47;95512.47;;;4.69;58.76
52957;BME280;38819;42.692;23.342;2023-11-19T09:13:13;95503.00;;;4.61;59.31
52957;BME280;38819;42.692;23.342;2023-11-19T09:15:38;95498.72;;;4.60;59.27
52957;BME280;38819;42.692;23.342;2023-11-19T09:18:03;95499.41;;;4.72;59.07
52957;BME280;38819;42.692;23.342;2023-11-19T09:20:29;95503.09;;;4.66;58.46
52957;BME280;38819;42.692;23.342;2023-11-19T09:23:02;95531.44;;;4.67;58.58
52957;BME280;38819;42.692;23.342;2023-11-19T09:25:28;95534.78;;;4.57;58.77
52957;BME280;38819;42.692;23.342;2023-11-19T09:27:53;95519.38;;;4.64;58.73
52957;BME280;38819;42.692;23.342;2023-11-19T09:30:19;95532.81;;;4.70;58.77
52957;BME280;38819;42.692;23.342;2023-11-19T09:32:44;95534.56;;;4.81;58.97
52957;BME280;38819;42.692;23.342;2023-11-19T09:35:09;95515.16;;;4.91;58.20
52957;BME280;38819;42.692;23.342;2023-11-19T09:37:38;95516.28;;;4.95;57.89
52957;BME280;38819;42.692;23.342;2023-11-19T09:40:04;95506.19;;;4.80;58.17
52957;BME280;38819;42.692;23.342;2023-11-19T09:42:29;95491.50;;;4.82;57.84
52957;BME280;38819;42.692;23.342;2023-11-19T09:44:56;95497.38;;;4.79;58.06
52957;BME280;38819;42.692;23.342;2023-11-19T09:47:23;95481.44;;;4.90;57.98
52957;BME280;38819;42.692;23.342;2023-11-19T09:49:50;95483.28;;;4.89;57.23
52957;BME280;38819;42.692;23.342;2023-11-19T09:52:16;95447.13;;;4.87;57.50
52957;BME280;38819;42.692;23.342;2023-11-19T09:54:41;95440.50;;;4.94;57.26
52957;BME280;38819;42.692;23.342;2023-11-19T09:57:06;95455.81;;;4.99;56.97
52957;BME280;38819;42.692;23.342;2023-11-19T09:59:33;95451.91;;;5.07;56.93
52957;BME280;38819;42.692;23.342;2023-11-19T10:01:58;95448.53;;;5.16;57.09
52957;BME280;38819;42.692;23.342;2023-11-19T10:04:24;95446.44;;;5.24;56.47
52957;BME280;38819;42.692;23.342;2023-11-19T10:06:50;95446.28;;;5.35;56.17
52957;BME280;38819;42.692;23.342;2023-11-19T10:09:16;95446.78;;;5.32;56.13
52957;BME280;38819;42.692;23.342;2023-11-19T10:11:41;95457.00;;;5.35;56.20
52957;BME280;38819;42.692;23.342;2023-11-19T10:14:07;95461.91;;;5.44;56.15
52957;BME280;38819;42.692;23.342;2023-11-19T10:16:34;95438.53;;;5.39;56.68
52957;BME280;38819;42.692;23.342;2023-11-19T10:18:59;95450.13;;;5.45;56.51
52957;BME280;38819;42.692;23.342;2023-11-19T10:21:24;95454.72;;;5.49;56.29
52957;BME280;38819;42.692;23.342;2023-11-19T10:23:51;95462.66;;;5.39;56.36
52957;BME280;38819;42.692;23.342;2023-11-19T10:26:17;95459.53;;;5.47;55.86
52957;BME280;38819;42.692;23.342;2023-11-19T10:28:42;95456.75;;;5.37;56.36
52957;BME280;38819;42.692;23.342;2023-11-19T10:31:10;95444.97;;;5.38;56.51
52957;BME280;38819;42.692;23.342;2023-11-19T10:33:35;95442.38;;;5.21;56.83
52957;BME280;38819;42.692;23.342;2023-11-19T10:36:01;95421.03;;;5.26;57.12
52957;BME280;38819;42.692;23.342;2023-11-19T10:38:26;95435.13;;;5.44;56.65
52957;BME280;38819;42.692;23.342;2023-11-19T10:40:52;95434.56;;;5.42;56.20
52957;BME280;38819;42.692;23.342;2023-11-19T10:43:17;95434.97;;;5.28;56.33
52957;BME280;38819;42.692;23.342;2023-11-19T10:45:43;95445.16;;;5.26;56.54
52957;BME280;38819;42.692;23.342;2023-11-19T10:48:08;95450.06;;;5.39;56.28
52957;BME280;38819;42.692;23.342;2023-11-19T10:50:35;95450.06;;;5.39;56.21
52957;BME280;38819;42.692;23.342;2023-11-19T10:53:01;95450.19;;;5.50;56.01
52957;BME280;38819;42.692;23.342;2023-11-19T10:55:28;95427.75;;;5.61;55.71
52957;BME280;38819;42.692;23.342;2023-11-19T10:57:56;95440.44;;;5.71;55.43
52957;BME280;38819;42.692;23.342;2023-11-19T11:00:23;95468.09;;;5.49;55.31
52957;BME280;38819;42.692;23.342;2023-11-19T11:02:50;95437.00;;;5.43;55.68
52957;BME280;38819;42.692;23.342;2023-11-19T11:05:16;95434.06;;;5.45;55.86
52957;BME280;38819;42.692;23.342;2023-11-19T11:07:42;95422.81;;;5.48;55.54
52957;BME280;38819;42.692;23.342;2023-11-19T11:10:09;95408.78;;;5.35;55.80
52957;BME280;38819;42.692;23.342;2023-11-19T11:12:36;95410.41;;;5.36;56.53
52957;BME280;38819;42.692;23.342;2023-11-19T11:15:02;95414.59;;;5.27;56.61
52957;BME280;38819;42.692;23.342;2023-11-19T11:17:30;95405.06;;;5.36;56.45
52957;BME280;38819;42.692;23.342;2023-11-19T11:19:56;95396.97;;;5.31;56.72
52957;BME280;38819;42.692;23.342;2023-11-19T11:22:22;95398.63;;;5.37;56.32
52957;BME280;38819;42.692;23.342;2023-11-19T11:24:53;95403.00;;;5.49;56.70
52957;BME280;38819;42.692;23.342;2023-11-19T11:32:45;95386.94;;;5.49;56.07
52957;BME280;38819;42.692;23.342;2023-11-19T11:37:44;95395.41;;;5.73;54.95
52957;BME280;38819;42.692;23.342;2023-11-19T11:40:16;95398.31;;;5.66;54.62
52957;BME280;38819;42.692;23.342;2023-11-19T11:42:43;95381.94;;;5.63;55.16
52957;BME280;38819;42.692;23.342;2023-11-19T11:45:10;95386.53;;;5.67;54.89
52957;BME280;38819;42.692;23.342;2023-11-19T11:50:07;95361.16;;;5.75;55.64
52957;BME280;38819;42.692;23.342;2023-11-19T11:52:33;95369.94;;;5.70;56.25
52957;BME280;38819;42.692;23.342;2023-11-19T11:55:08;95367.28;;;5.70;55.95
52957;BME280;38819;42.692;23.342;2023-11-19T11:57:37;95371.28;;;5.73;56.13
52957;BME280;38819;42.692;23.342;2023-11-19T12:00:03;95384.53;;;5.85;55.85
52957;BME280;38819;42.692;23.342;2023-11-19T12:02:30;95375.66;;;5.84;55.69
52957;BME280;38819;42.692;23.342;2023-11-19T12:04:55;95393.59;;;5.79;55.52
52957;BME280;38819;42.692;23.342;2023-11-19T12:07:23;95378.88;;;5.86;55.44
52957;BME280;38819;42.692;23.342;2023-11-19T12:10:10;95378.59;;;5.83;55.09
52957;BME280;38819;42.692;23.342;2023-11-19T12:12:36;95368.59;;;5.73;55.29
52957;BME280;38819;42.692;23.342;2023-11-19T12:15:04;95355.28;;;5.78;55.36
52957;BME280;38819;42.692;23.342;2023-11-19T12:19:59;95359.41;;;5.96;54.74
52957;BME280;38819;42.692;23.342;2023-11-19T12:22:24;95350.47;;;5.85;54.99
52957;BME280;38819;42.692;23.342;2023-11-19T12:24:50;95350.19;;;5.82;55.41
52957;BME280;38819;42.692;23.342;2023-11-19T12:27:17;95339.69;;;5.75;55.90
52957;BME280;38819;42.692;23.342;2023-11-19T12:29:43;95339.72;;;5.80;56.13
52957;BME280;38819;42.692;23.342;2023-11-19T12:32:11;95347.25;;;5.83;55.92
52957;BME280;38819;42.692;23.342;2023-11-19T12:34:36;95342.19;;;5.87;55.92
52957;BME280;38819;42.692;23.342;2023-11-19T12:37:05;95334.78;;;6.04;55.62
52957;BME280;38819;42.692;23.342;2023-11-19T12:39:30;95336.81;;;5.87;55.86
52957;BME280;38819;42.692;23.342;2023-11-19T12:41:56;95326.91;;;5.92;55.84
52957;BME280;38819;42.692;23.342;2023-11-19T12:44:24;95320.75;;;5.87;55.70
52957;BME280;38819;42.692;23.342;2023-11-19T12:47:02;95313.53;;;5.92;55.64
52957;BME280;38819;42.692;23.342;2023-11-19T12:49:28;95312.19;;;5.95;55.80
52957;BME280;38819;42.692;23.342;2023-11-19T12:51:53;95314.16;;;6.05;55.56
52957;BME280;38819;42.692;23.342;2023-11-19T12:54:18;95316.84;;;6.05;55.33
52957;BME280;38819;42.692;23.342;2023-11-19T12:56:53;95322.75;;;6.07;55.39
52957;BME280;38819;42.692;23.342;2023-11-19T12:59:18;95311.78;;;6.14;55.46
52957;BME280;38819;42.692;23.342;2023-11-19T13:01:54;95316.38;;;6.18;55.27
52957;BME280;38819;42.692;23.342;2023-11-19T13:04:19;95307.25;;;6.24;55.09
52957;BME280;38819;42.692;23.342;2023-11-19T13:06:47;95302.97;;;6.23;54.75
52957;BME280;38819;42.692;23.342;2023-11-19T13:11:47;95302.97;;;6.18;55.44